Time;durP1;ratioP1;P1;durP2;ratioP2;P2;SDS_P1;SDS_P2;PMS_P1;PMS_P2;Temp;Humidity;BMP_temperature;BMP_pressure;BME280_temperature;BME280_humidity;BME280_pressure;Samples;Min_cycle;Max_cycle;Signal;HPM_P1;HPM_P2
2023/08/23 00:02:24;;;;;;;5.25;3.90;;;17.80;99.90;;;;;;5053019;28;20258;-54
2023/08/23 00:04:50;;;;;;;5.03;3.60;;;17.70;99.90;;;;;;5052925;28;20176;-53
2023/08/23 00:07:16;;;;;;;6.03;4.32;;;17.70;99.90;;;;;;5052770;28;20212;-53
2023/08/23 00:09:42;;;;;;;4.50;4.10;;;17.60;99.90;;;;;;5052835;28;20568;-51
2023/08/23 00:12:08;;;;;;;4.90;4.40;;;17.70;99.90;;;;;;5052987;28;20179;-55
2023/08/23 00:14:34;;;;;;;6.13;4.50;;;17.60;99.90;;;;;;5053081;28;20179;-55
2023/08/23 00:16:59;;;;;;;4.95;4.43;;;17.50;99.90;;;;;;5052778;28;20182;-53
2023/08/23 00:19:25;;;;;;;5.03;4.38;;;17.50;99.90;;;;;;5052837;28;20306;-54
2023/08/23 00:21:51;;;;;;;5.43;4.90;;;17.50;99.90;;;;;;5052754;28;20582;-53
2023/08/23 00:24:19;;;;;;;6.18;4.50;;;17.50;99.90;;;;;;5052661;28;20633;-52
2023/08/23 00:26:45;;;;;;;5.38;4.88;;;17.50;99.90;;;;;;5052852;28;20210;-56
2023/08/23 00:29:10;;;;;;;5.93;4.13;;;17.50;99.90;;;;;;5051582;28;20183;-53
2023/08/23 00:31:36;;;;;;;5.07;3.67;;;17.50;99.90;;;;;;5052757;28;20186;-53
2023/08/23 00:34:02;;;;;;;5.47;4.10;;;17.50;99.90;;;;;;5052791;28;20171;-53
2023/08/23 00:36:28;;;;;;;6.22;4.93;;;17.50;99.90;;;;;;5052623;28;20547;-54
2023/08/23 00:38:56;;;;;;;5.35;4.82;;;17.40;99.90;;;;;;5052614;28;20172;-55
2023/08/23 00:41:22;;;;;;;5.18;4.68;;;17.50;99.90;;;;;;5052858;28;20178;-53
2023/08/23 00:43:49;;;;;;;7.32;4.75;;;17.60;99.90;;;;;;5052669;28;20201;-54
2023/08/23 00:46:15;;;;;;;4.70;4.30;;;17.60;99.90;;;;;;5052583;28;20210;-54
2023/08/23 00:48:43;;;;;;;6.32;4.63;;;17.60;99.90;;;;;;5056268;28;20211;-53
2023/08/23 00:51:10;;;;;;;6.63;4.60;;;17.60;99.90;;;;;;5056132;28;20262;-53
2023/08/23 00:53:37;;;;;;;5.47;4.68;;;17.60;99.90;;;;;;5056006;28;20237;-54
2023/08/23 00:56:04;;;;;;;5.57;4.70;;;17.60;99.90;;;;;;5056244;28;20214;-51
2023/08/23 00:58:30;;;;;;;5.65;4.82;;;17.60;99.90;;;;;;5056242;28;20233;-54
2023/08/23 01:00:57;;;;;;;5.55;5.05;;;17.50;99.90;;;;;;5056041;28;20171;-54
2023/08/23 01:03:23;;;;;;;5.00;4.53;;;17.60;99.90;;;;;;5055866;28;20632;-53
2023/08/23 01:06:00;;;;;;;6.22;4.20;;;17.60;99.90;;;;;;5056124;28;20174;-54
2023/08/23 01:08:38;;;;;;;6.97;5.28;;;17.60;99.90;;;;;;5056106;28;20187;-55
2023/08/23 01:11:30;;;;;;;5.80;4.63;;;17.50;99.90;;;;;;5056258;28;20191;-54
2023/08/23 01:14:02;;;;;;;5.53;4.35;;;17.40;99.90;;;;;;5055798;28;20206;-51
2023/08/23 01:16:28;;;;;;;5.68;4.45;;;17.40;99.90;;;;;;5055904;28;20179;-55
2023/08/23 01:18:56;;;;;;;4.38;3.97;;;17.30;99.90;;;;;;5055574;28;20186;-54
2023/08/23 01:21:32;;;;;;;5.90;4.53;;;17.30;99.90;;;;;;5055802;28;20163;-54
2023/08/23 01:23:58;;;;;;;5.78;5.13;;;17.30;99.90;;;;;;5055615;28;20228;-55
2023/08/23 01:26:24;;;;;;;6.07;5.25;;;17.30;99.90;;;;;;5055135;28;20293;-55
2023/08/23 01:28:51;;;;;;;8.10;5.32;;;17.30;99.90;;;;;;5055394;28;20270;-53
2023/08/23 01:31:20;;;;;;;7.38;5.65;;;17.30;99.90;;;;;;5055548;28;20232;-55
2023/08/23 01:34:00;;;;;;;6.53;4.97;;;17.30;99.90;;;;;;5055460;28;20175;-52
2023/08/23 01:36:28;;;;;;;8.48;5.50;;;17.30;99.90;;;;;;5055437;28;20175;-55
2023/08/23 01:38:56;;;;;;;6.32;5.63;;;17.30;99.90;;;;;;5055306;28;20182;-54
2023/08/23 01:41:23;;;;;;;6.68;5.30;;;17.20;99.90;;;;;;5055188;28;20553;-51
2023/08/23 01:43:48;;;;;;;7.30;5.95;;;17.10;99.90;;;;;;5055341;28;20172;-54
2023/08/23 01:46:14;;;;;;;8.20;5.53;;;17.20;99.90;;;;;;5055184;28;20210;-54
2023/08/23 01:48:40;;;;;;;5.63;5.00;;;17.20;99.90;;;;;;5055188;28;20207;-55
2023/08/23 01:51:06;;;;;;;7.57;5.47;;;17.30;99.90;;;;;;5055152;28;20537;-54
2023/08/23 01:53:32;;;;;;;7.35;5.10;;;17.20;99.90;;;;;;5055046;28;20175;-54
2023/08/23 01:55:59;;;;;;;7.65;5.82;;;17.20;99.90;;;;;;5054929;28;20690;-54
2023/08/23 01:58:25;;;;;;;6.65;5.90;;;17.10;99.90;;;;;;5054589;28;20267;-54
2023/08/23 02:00:51;;;;;;;7.63;5.97;;;17.10;99.90;;;;;;5055054;28;20633;-55
2023/08/23 02:03:21;;;;;;;7.72;5.68;;;17.10;99.90;;;;;;5054888;28;20179;-53
2023/08/23 02:05:47;;;;;;;8.27;6.35;;;17.10;99.90;;;;;;5054781;28;20632;-54
2023/08/23 02:08:14;;;;;;;7.30;6.25;;;17.00;99.90;;;;;;5054586;28;20207;-54
2023/08/23 02:10:39;;;;;;;6.50;5.82;;;17.00;99.90;;;;;;5054628;28;20186;-54
2023/08/23 02:13:06;;;;;;;8.45;5.45;;;17.00;99.90;;;;;;5054590;28;20176;-54
2023/08/23 02:15:32;;;;;;;7.68;6.75;;;17.00;99.90;;;;;;5054714;28;20526;-54
2023/08/23 02:17:58;;;;;;;7.30;6.45;;;17.00;99.90;;;;;;5054587;28;20182;-55
2023/08/23 02:20:23;;;;;;;8.10;6.40;;;17.00;99.90;;;;;;5054383;28;20245;-54
2023/08/23 02:22:49;;;;;;;8.18;6.82;;;17.00;99.90;;;;;;5054371;28;20583;-53
2023/08/23 02:25:15;;;;;;;8.52;7.03;;;17.00;99.90;;;;;;5053071;28;20590;-54
2023/08/23 02:27:40;;;;;;;7.18;6.47;;;17.00;99.90;;;;;;5054455;28;20233;-54
2023/08/23 02:30:06;;;;;;;7.43;6.30;;;16.90;99.90;;;;;;5054434;28;20179;-52
2023/08/23 02:32:33;;;;;;;8.43;6.15;;;16.70;99.90;;;;;;5054386;28;20254;-54
2023/08/23 02:35:00;;;;;;;5.50;5.00;;;16.80;99.90;;;;;;5054250;28;20214;-53
2023/08/23 02:37:25;;;;;;;7.32;6.55;;;16.70;99.90;;;;;;5054146;28;20182;-54
2023/08/23 02:39:51;;;;;;;10.27;7.15;;;16.70;99.90;;;;;;5054055;28;20521;-54
2023/08/23 02:42:17;;;;;;;8.13;6.45;;;16.70;99.90;;;;;;5054251;28;20176;-54
2023/08/23 02:44:42;;;;;;;8.82;6.47;;;16.70;99.90;;;;;;5054187;28;20182;-55
2023/08/23 02:47:08;;;;;;;8.32;6.70;;;16.80;99.90;;;;;;5053950;28;20211;-54
2023/08/23 02:49:33;;;;;;;7.18;6.03;;;16.80;99.90;;;;;;5053969;28;20190;-54
2023/08/23 02:51:59;;;;;;;7.10;6.38;;;16.70;99.90;;;;;;5053955;28;20536;-55
2023/08/23 02:54:25;;;;;;;9.25;6.18;;;16.70;99.90;;;;;;5053787;28;20175;-54
2023/08/23 02:56:50;;;;;;;6.88;5.50;;;16.60;99.90;;;;;;5053972;28;20532;-54
2023/08/23 02:59:16;;;;;;;7.05;5.80;;;16.40;99.90;;;;;;5053935;28;20588;-54
2023/08/23 03:01:42;;;;;;;6.95;6.07;;;16.40;99.90;;;;;;5053803;28;20294;-51
2023/08/23 03:04:07;;;;;;;6.32;5.30;;;16.30;99.90;;;;;;5053700;28;20181;-52
2023/08/23 03:06:33;;;;;;;9.15;6.00;;;16.20;99.90;;;;;;5053606;28;20256;-53
2023/08/23 03:08:59;;;;;;;8.52;6.82;;;16.20;99.90;;;;;;5053476;28;20184;-53
2023/08/23 03:11:24;;;;;;;9.38;6.68;;;16.30;99.90;;;;;;5052912;28;20173;-54
2023/08/23 03:13:50;;;;;;;8.95;7.32;;;16.30;99.90;;;;;;5053744;28;20190;-54
2023/08/23 03:16:15;;;;;;;9.43;7.38;;;16.20;99.90;;;;;;5053581;28;20176;-55
2023/08/23 03:18:41;;;;;;;7.97;6.50;;;16.20;99.90;;;;;;5053331;28;20172;-55
2023/08/23 03:21:07;;;;;;;6.97;6.22;;;16.20;99.90;;;;;;5053403;28;20179;-53
2023/08/23 03:23:32;;;;;;;8.90;6.50;;;16.20;99.90;;;;;;5053301;28;20179;-54
2023/08/23 03:25:58;;;;;;;6.82;6.13;;;16.10;99.90;;;;;;5053508;28;20533;-52
2023/08/23 03:28:24;;;;;;;9.25;7.18;;;16.00;99.90;;;;;;5053284;28;20305;-52
2023/08/23 03:30:49;;;;;;;8.50;7.10;;;16.00;99.90;;;;;;5053372;28;20225;-53
2023/08/23 03:33:15;;;;;;;10.07;8.30;;;16.10;99.90;;;;;;5053172;28;20179;-51
2023/08/23 03:35:41;;;;;;;10.20;8.88;;;16.20;99.90;;;;;;5053286;28;20171;-52
2023/08/23 03:38:06;;;;;;;13.05;9.40;;;16.20;99.90;;;;;;5053145;28;20171;-54
2023/08/23 03:40:39;;;;;;;10.43;8.63;;;16.20;99.90;;;;;;5053045;28;20183;-53
2023/08/23 03:43:05;;;;;;;11.23;9.27;;;16.30;99.90;;;;;;5053214;28;20176;-51
2023/08/23 03:45:31;;;;;;;12.90;9.93;;;16.20;99.90;;;;;;5053187;28;20163;-54
2023/08/23 03:47:56;;;;;;;11.82;8.52;;;16.20;99.90;;;;;;5053021;28;20635;-50
2023/08/23 03:50:25;;;;;;;10.15;8.98;;;16.20;99.90;;;;;;5053141;28;20176;-54
2023/08/23 03:52:51;;;;;;;10.05;8.32;;;16.20;99.90;;;;;;5052921;28;20680;-54
2023/08/23 03:55:16;;;;;;;10.90;8.25;;;16.30;99.90;;;;;;5053188;28;20259;-54
2023/08/23 03:57:42;;;;;;;10.32;8.88;;;16.30;99.90;;;;;;5053543;28;20185;-54
2023/08/23 04:00:08;;;;;;;12.63;10.00;;;16.40;99.90;;;;;;5052757;28;20316;-54
2023/08/23 04:02:34;;;;;;;11.13;8.10;;;16.20;99.90;;;;;;5052892;28;20724;-54
2023/08/23 04:05:02;;;;;;;10.38;8.93;;;16.10;99.90;;;;;;5052860;28;20258;-53
2023/08/23 04:07:27;;;;;;;11.80;9.45;;;16.10;99.90;;;;;;5052695;28;20203;-53
2023/08/23 04:09:53;;;;;;;13.85;10.63;;;16.20;99.90;;;;;;5053035;28;20182;-55
2023/08/23 04:12:19;;;;;;;11.95;9.52;;;16.20;99.90;;;;;;5053036;28;20254;-52
2023/08/23 04:14:44;;;;;;;9.90;8.90;;;16.20;99.90;;;;;;5053223;28;20178;-53
2023/08/23 04:17:10;;;;;;;10.95;9.13;;;16.10;99.90;;;;;;5052890;28;20229;-50
2023/08/23 04:19:36;;;;;;;12.35;8.90;;;16.20;99.90;;;;;;5052864;28;20630;-54
2023/08/23 04:22:02;;;;;;;11.32;8.45;;;16.20;99.90;;;;;;5054336;28;20675;-53
2023/08/23 04:24:28;;;;;;;12.05;8.65;;;16.20;99.90;;;;;;5056829;28;20209;-53
2023/08/23 04:26:53;;;;;;;13.20;9.77;;;16.20;99.90;;;;;;5056523;28;20199;-54
2023/08/23 04:29:19;;;;;;;12.63;10.20;;;16.20;99.90;;;;;;5055560;28;20229;-54
2023/08/23 04:31:44;;;;;;;14.98;10.45;;;16.20;99.90;;;;;;5056890;28;20183;-52
2023/08/23 04:34:10;;;;;;;13.18;10.90;;;16.10;99.90;;;;;;5056556;28;20532;-51
2023/08/23 04:36:36;;;;;;;12.05;10.82;;;16.10;99.90;;;;;;5056391;28;20183;-54
2023/08/23 04:39:01;;;;;;;12.63;10.70;;;16.10;99.90;;;;;;5056280;28;20632;-54
2023/08/23 04:41:27;;;;;;;16.85;11.77;;;16.10;99.90;;;;;;5056492;28;20179;-54
2023/08/23 04:43:53;;;;;;;17.48;12.63;;;16.20;99.90;;;;;;5056263;28;20183;-55
2023/08/23 04:46:19;;;;;;;13.52;11.30;;;16.20;99.90;;;;;;5056233;28;20264;-52
2023/08/23 04:48:44;;;;;;;18.38;11.20;;;16.10;99.90;;;;;;5056258;28;20624;-51
2023/08/23 04:51:11;;;;;;;13.85;11.40;;;16.20;99.90;;;;;;5056064;28;20210;-52
2023/08/23 04:53:37;;;;;;;13.77;10.98;;;16.10;99.90;;;;;;5056394;28;20167;-53
2023/08/23 04:56:03;;;;;;;13.27;11.07;;;16.00;99.90;;;;;;5056047;28;20452;-53
2023/08/23 04:58:32;;;;;;;15.98;10.25;;;16.10;99.90;;;;;;5054389;28;20176;-51
2023/08/23 05:00:59;;;;;;;13.77;10.60;;;16.10;99.90;;;;;;5059996;28;20294;-55
2023/08/23 05:03:25;;;;;;;15.32;9.95;;;16.00;99.90;;;;;;5055168;28;20179;-53
2023/08/23 05:05:52;;;;;;;14.82;10.15;;;16.00;99.90;;;;;;5055003;28;20218;-50
2023/08/23 05:08:18;;;;;;;12.65;9.68;;;16.00;99.90;;;;;;5055772;28;20206;-51
2023/08/23 05:10:43;;;;;;;13.23;9.60;;;15.90;99.90;;;;;;5055695;28;20190;-53
2023/08/23 05:13:09;;;;;;;15.55;10.63;;;16.00;99.90;;;;;;5055446;28;20637;-51
2023/08/23 05:15:35;;;;;;;14.98;10.00;;;15.90;99.90;;;;;;5055038;28;20179;-52
2023/08/23 05:18:00;;;;;;;15.32;10.02;;;16.00;99.90;;;;;;5055055;28;20205;-52
2023/08/23 05:20:26;;;;;;;12.98;9.43;;;16.00;99.90;;;;;;5055270;28;20223;-51
2023/08/23 05:22:51;;;;;;;10.90;9.80;;;16.00;99.90;;;;;;5055250;28;20194;-53
2023/08/23 05:25:17;;;;;;;12.32;9.30;;;16.10;99.90;;;;;;5055174;28;20655;-52
2023/08/23 05:27:43;;;;;;;13.77;10.85;;;16.10;99.90;;;;;;5055293;28;20621;-51
2023/08/23 05:30:09;;;;;;;14.10;10.20;;;16.20;99.90;;;;;;5055333;28;20249;-52
2023/08/23 05:32:35;;;;;;;15.52;11.63;;;16.20;99.90;;;;;;5054616;28;20183;-52
2023/08/23 05:35:00;;;;;;;14.13;10.60;;;16.30;99.90;;;;;;5054314;28;20537;-53
2023/08/23 05:37:26;;;;;;;12.32;9.95;;;16.30;99.90;;;;;;5053977;28;20274;-51
2023/08/23 05:39:52;;;;;;;12.82;10.27;;;16.40;99.90;;;;;;5054967;28;20262;-50
2023/08/23 05:42:18;;;;;;;13.32;10.55;;;16.40;99.90;;;;;;5054702;28;20190;-50
2023/08/23 05:44:44;;;;;;;15.13;11.52;;;16.40;99.90;;;;;;5054990;28;20187;-53
2023/08/23 05:47:09;;;;;;;15.82;11.43;;;16.40;99.90;;;;;;5054642;28;20340;-49
2023/08/23 05:49:35;;;;;;;13.82;10.50;;;16.40;99.90;;;;;;5054725;28;20252;-51
2023/08/23 05:52:00;;;;;;;14.55;10.93;;;16.40;99.90;;;;;;5054528;28;20171;-52
2023/08/23 05:54:26;;;;;;;17.15;10.77;;;16.60;99.90;;;;;;5053779;28;20193;-52
2023/08/23 05:56:52;;;;;;;13.00;10.07;;;16.70;99.90;;;;;;5054646;28;20198;-52
2023/08/23 05:59:17;;;;;;;14.60;10.00;;;16.90;99.90;;;;;;5054660;28;20175;-51
2023/08/23 06:01:43;;;;;;;14.10;10.70;;;17.00;99.90;;;;;;5054479;28;20207;-50
2023/08/23 06:04:08;;;;;;;11.55;9.90;;;17.00;99.90;;;;;;5054232;28;20595;-49
2023/08/23 06:06:34;;;;;;;11.70;10.30;;;17.10;99.90;;;;;;5054089;28;20723;-51
2023/08/23 06:09:00;;;;;;;11.02;9.82;;;17.20;99.90;;;;;;5054346;28;20182;-51
2023/08/23 06:11:26;;;;;;;11.68;9.52;;;17.30;99.90;;;;;;5051560;28;20591;-51
2023/08/23 06:13:52;;;;;;;13.15;9.55;;;17.30;99.90;;;;;;5054088;28;20187;-53
2023/08/23 06:16:17;;;;;;;11.23;9.52;;;17.50;99.90;;;;;;5054369;28;20171;-53
2023/08/23 06:18:43;;;;;;;13.20;9.25;;;17.40;99.90;;;;;;5054350;28;20236;-52
2023/08/23 06:21:09;;;;;;;10.23;8.70;;;17.60;99.90;;;;;;5054479;28;20206;-49
2023/08/23 06:23:36;;;;;;;13.18;9.60;;;17.70;99.90;;;;;;5053347;28;20179;-51
2023/08/23 06:26:03;;;;;;;11.75;9.20;;;17.80;99.90;;;;;;5054566;28;20237;-52
2023/08/23 06:28:29;;;;;;;10.00;8.80;;;18.00;99.90;;;;;;5054360;28;20599;-51
2023/08/23 06:30:56;;;;;;;13.00;9.48;;;17.90;99.90;;;;;;5054329;28;20172;-51
2023/08/23 06:33:22;;;;;;;12.60;9.10;;;17.80;99.90;;;;;;5054165;28;20536;-51
2023/08/23 06:35:48;;;;;;;10.70;8.70;;;18.00;99.90;;;;;;5054184;28;20632;-52
2023/08/23 06:38:15;;;;;;;12.95;8.50;;;18.00;99.90;;;;;;5054306;28;20184;-52
2023/08/23 06:40:42;;;;;;;9.88;8.60;;;18.00;99.90;;;;;;5054224;28;20179;-53
2023/08/23 06:43:08;;;;;;;13.18;9.00;;;18.10;99.90;;;;;;5054213;28;20187;-49
2023/08/23 06:45:33;;;;;;;11.65;8.43;;;18.20;99.90;;;;;;5054049;28;20171;-53
2023/08/23 06:47:59;;;;;;;10.20;8.30;;;18.20;99.90;;;;;;5053920;28;20249;-51
2023/08/23 06:50:25;;;;;;;10.63;8.40;;;18.20;99.90;;;;;;5053878;28;20187;-48
2023/08/23 06:52:50;;;;;;;13.93;9.38;;;18.30;99.90;;;;;;5053899;28;20183;-53
2023/08/23 06:55:16;;;;;;;13.98;8.63;;;18.30;99.90;;;;;;5053776;28;20190;-52
2023/08/23 06:57:42;;;;;;;12.77;9.13;;;18.40;99.90;;;;;;5053838;28;20175;-52
2023/08/23 07:00:08;;;;;;;13.68;8.60;;;18.60;99.90;;;;;;5053537;28;20658;-52
2023/08/23 07:02:34;;;;;;;14.65;8.52;;;18.60;99.90;;;;;;5053544;28;20648;-51
2023/08/23 07:05:00;;;;;;;13.02;9.23;;;18.50;99.90;;;;;;5053470;28;20198;-52
2023/08/23 07:07:26;;;;;;;15.18;9.27;;;18.60;99.90;;;;;;5053666;28;20610;-50
2023/08/23 07:09:52;;;;;;;13.93;9.40;;;18.60;99.90;;;;;;5053717;28;20277;-51
2023/08/23 07:12:18;;;;;;;13.57;9.02;;;18.80;99.90;;;;;;5053513;28;20180;-52
2023/08/23 07:14:46;;;;;;;12.60;8.43;;;18.70;99.90;;;;;;5052727;28;20198;-52
2023/08/23 07:17:13;;;;;;;14.45;8.98;;;18.80;99.90;;;;;;5053298;28;20195;-53
2023/08/23 07:19:38;;;;;;;11.75;9.50;;;19.10;99.90;;;;;;5053099;28;20238;-53
2023/08/23 07:22:04;;;;;;;13.80;8.88;;;19.10;99.90;;;;;;5052750;28;20178;-50
2023/08/23 07:24:31;;;;;;;11.73;8.45;;;19.10;99.90;;;;;;5051886;28;20179;-54
2023/08/23 07:26:56;;;;;;;13.68;8.70;;;19.30;99.90;;;;;;5052662;28;20191;-51
2023/08/23 07:29:23;;;;;;;9.23;8.02;;;19.30;99.90;;;;;;5053628;28;20237;-49
2023/08/23 07:31:49;;;;;;;12.20;8.15;;;19.60;99.90;;;;;;5053269;28;20571;-51
2023/08/23 07:34:16;;;;;;;14.27;8.30;;;19.90;99.90;;;;;;5053096;28;20182;-51
2023/08/23 07:36:41;;;;;;;10.82;7.18;;;20.00;99.90;;;;;;5053315;28;20183;-52
2023/08/23 07:39:08;;;;;;;12.13;7.72;;;20.20;99.90;;;;;;5053379;28;20179;-50
2023/08/23 07:41:34;;;;;;;8.18;7.35;;;20.30;99.90;;;;;;5053180;28;20210;-52
2023/08/23 07:43:59;;;;;;;8.63;7.35;;;19.90;99.90;;;;;;5053173;28;20167;-52
2023/08/23 07:46:25;;;;;;;6.93;6.15;;;20.00;99.90;;;;;;5053024;28;20643;-52
2023/08/23 07:48:50;;;;;;;9.32;6.90;;;20.30;99.90;;;;;;5052935;28;20660;-51
2023/08/23 07:51:16;;;;;;;10.00;7.05;;;20.60;99.90;;;;;;5053203;28;20179;-51
2023/08/23 07:53:43;;;;;;;9.65;6.45;;;20.80;99.90;;;;;;5053122;28;20632;-53
2023/08/23 07:56:10;;;;;;;9.95;6.65;;;21.00;99.90;;;;;;5053190;28;20179;-52
2023/08/23 07:58:38;;;;;;;10.32;7.25;;;21.20;99.90;;;;;;5056013;28;20179;-50
2023/08/23 08:01:04;;;;;;;8.25;6.75;;;21.20;99.90;;;;;;5057008;28;20662;-50
2023/08/23 08:03:30;;;;;;;10.85;6.78;;;21.20;99.90;;;;;;5057027;28;20182;-52
2023/08/23 08:05:56;;;;;;;9.45;6.40;;;21.20;99.90;;;;;;5057245;28;20173;-53
2023/08/23 08:08:21;;;;;;;8.90;6.10;;;21.20;99.90;;;;;;5057033;28;20207;-51
2023/08/23 08:10:49;;;;;;;7.65;5.70;;;21.30;99.90;;;;;;5057070;28;20180;-49
2023/08/23 08:13:15;;;;;;;6.82;5.45;;;21.50;99.90;;;;;;5056925;28;20167;-50
2023/08/23 08:15:42;;;;;;;8.07;6.20;;;21.70;99.90;;;;;;5056940;28;20175;-51
2023/08/23 08:18:08;;;;;;;10.00;5.90;;;21.80;99.90;;;;;;5055755;28;20189;-51
2023/08/23 08:20:34;;;;;;;6.68;5.63;;;21.70;99.90;;;;;;5056619;28;20230;-51
2023/08/23 08:22:59;;;;;;;7.30;6.07;;;21.70;99.90;;;;;;5056868;28;20167;-52
2023/08/23 08:25:25;;;;;;;8.25;6.05;;;22.00;99.90;;;;;;5056731;28;20179;-53
2023/08/23 08:27:51;;;;;;;10.00;5.53;;;22.00;99.90;;;;;;5056676;28;20195;-52
2023/08/23 08:30:17;;;;;;;6.13;5.18;;;22.00;99.90;;;;;;5056537;28;20182;-52
2023/08/23 08:32:43;;;;;;;6.53;4.72;;;22.20;99.90;;;;;;5056426;28;20167;-53
2023/08/23 08:35:09;;;;;;;7.68;5.75;;;22.40;99.90;;;;;;5056578;28;20182;-53
2023/08/23 08:37:35;;;;;;;9.52;5.47;;;22.40;99.90;;;;;;5056515;28;20202;-51
2023/08/23 08:40:00;;;;;;;10.30;5.72;;;22.30;99.90;;;;;;5056456;28;20179;-52
2023/08/23 08:42:26;;;;;;;9.82;5.10;;;22.60;99.90;;;;;;5056344;28;20198;-53
2023/08/23 08:44:52;;;;;;;6.80;4.80;;;22.50;99.90;;;;;;5056197;28;20225;-53
2023/08/23 08:47:18;;;;;;;5.45;4.45;;;22.60;99.90;;;;;;5056436;28;20533;-53
2023/08/23 08:49:44;;;;;;;4.25;3.70;;;22.60;99.90;;;;;;5056313;28;20213;-52
2023/08/23 08:52:13;;;;;;;5.55;3.63;;;22.70;99.90;;;;;;5056353;28;20229;-49
2023/08/23 08:54:41;;;;;;;5.78;3.80;;;22.70;99.90;;;;;;5056189;28;20262;-49
2023/08/23 08:57:08;;;;;;;7.65;3.75;;;22.80;99.90;;;;;;5056021;28;20175;-52
2023/08/23 08:59:35;;;;;;;4.25;2.67;;;22.90;99.90;;;;;;5056011;28;20270;-53
2023/08/23 09:02:03;;;;;;;4.60;2.83;;;23.00;99.90;;;;;;5056155;28;20240;-50
2023/08/23 09:04:29;;;;;;;4.03;2.47;;;22.90;99.90;;;;;;5056325;28;20221;-55
2023/08/23 09:06:55;;;;;;;7.18;3.45;;;23.00;99.90;;;;;;5055798;28;20217;-49
2023/08/23 09:09:21;;;;;;;5.40;2.80;;;23.20;99.90;;;;;;5054562;28;20175;-52
2023/08/23 09:11:47;;;;;;;6.93;3.80;;;23.20;99.90;;;;;;5055826;28;20175;-54
2023/08/23 09:14:19;;;;;;;6.85;3.50;;;23.40;99.90;;;;;;5055758;28;20168;-52
2023/08/23 09:16:46;;;;;;;6.80;4.10;;;23.30;99.90;;;;;;5055854;28;20171;-54
2023/08/23 09:19:12;;;;;;;5.93;3.42;;;23.40;99.90;;;;;;5055696;28;20226;-51
2023/08/23 09:21:44;;;;;;;7.03;4.50;;;23.40;99.90;;;;;;5055775;28;20180;-53
2023/08/23 09:24:11;;;;;;;8.00;4.82;;;23.30;99.90;;;;;;5055641;28;20229;-53
2023/08/23 09:26:37;;;;;;;6.03;3.72;;;23.50;99.90;;;;;;5055354;28;20242;-54
2023/08/23 09:29:04;;;;;;;7.10;4.22;;;23.80;99.90;;;;;;5055447;28;20205;-54
2023/08/23 09:31:30;;;;;;;9.10;4.10;;;23.90;99.90;;;;;;5055724;28;20167;-52
2023/08/23 09:33:56;;;;;;;7.07;4.40;;;23.80;99.90;;;;;;5055411;28;20225;-51
2023/08/23 09:36:40;;;;;;;5.80;3.90;;;23.80;99.90;;;;;;5054339;28;20186;-51
2023/08/23 09:39:10;;;;;;;5.72;3.75;;;24.10;99.90;;;;;;5055274;28;20644;-53
2023/08/23 09:41:40;;;;;;;7.75;3.63;;;24.10;99.90;;;;;;5055500;28;20565;-53
2023/08/23 09:44:06;;;;;;;4.53;3.20;;;24.20;99.90;;;;;;5055356;28;20644;-52
2023/08/23 09:46:35;;;;;;;5.35;3.58;;;24.30;99.90;;;;;;5054978;28;20591;-52
2023/08/23 09:49:04;;;;;;;8.10;4.90;;;24.50;99.90;;;;;;5053936;28;20575;-54
2023/08/23 09:51:36;;;;;;;8.27;4.72;;;24.60;99.90;;;;;;5055096;28;20194;-54
2023/08/23 09:54:13;;;;;;;5.38;3.70;;;24.40;99.90;;;;;;5055062;28;20172;-54
2023/08/23 09:56:42;;;;;;;9.68;3.88;;;24.50;99.90;;;;;;5055279;28;20229;-53
2023/08/23 09:59:09;;;;;;;5.57;3.17;;;24.60;99.90;;;;;;5055224;28;20237;-52
2023/08/23 10:01:36;;;;;;;7.88;4.35;;;24.60;99.90;;;;;;5055005;28;20579;-54
2023/08/23 10:04:03;;;;;;;6.35;3.70;;;24.70;99.90;;;;;;5054846;28;20180;-53
2023/08/23 10:06:30;;;;;;;5.57;3.88;;;24.90;99.90;;;;;;5054712;28;20198;-54
2023/08/23 10:08:56;;;;;;;4.82;2.85;;;24.90;99.90;;;;;;5054974;28;20214;-54
2023/08/23 10:11:23;;;;;;;6.40;2.80;;;24.80;99.90;;;;;;5054898;28;20636;-53
2023/08/23 10:13:50;;;;;;;6.05;3.13;;;24.90;99.90;;;;;;5054797;28;20176;-53
2023/08/23 10:16:17;;;;;;;4.70;3.30;;;25.10;99.90;;;;;;5054568;28;20166;-52
2023/08/23 10:18:43;;;;;;;6.40;3.60;;;25.00;99.90;;;;;;5054369;28;20217;-54
2023/08/23 10:21:09;;;;;;;5.25;2.65;;;24.90;99.90;;;;;;5054041;28;20179;-52
2023/08/23 10:23:36;;;;;;;5.93;3.55;;;25.00;99.90;;;;;;5054717;28;20521;-52
2023/08/23 10:26:02;;;;;;;6.20;3.33;;;25.30;99.90;;;;;;5054485;28;20274;-53
2023/08/23 10:28:28;;;;;;;6.10;3.15;;;25.40;99.90;;;;;;5054282;28;20225;-53
2023/08/23 10:30:59;;;;;;;5.97;3.33;;;25.30;99.90;;;;;;5054297;28;20633;-54
2023/08/23 10:33:25;;;;;;;5.75;2.45;;;25.40;99.90;;;;;;5054258;28;20172;-52
2023/08/23 10:35:51;;;;;;;4.15;2.50;;;25.60;99.90;;;;;;5054128;28;20179;-53
2023/08/23 10:38:16;;;;;;;5.22;2.55;;;25.70;99.90;;;;;;5054241;28;20183;-53
2023/08/23 10:40:45;;;;;;;4.95;3.55;;;25.90;99.90;;;;;;5054171;28;20217;-52
2023/08/23 10:43:16;;;;;;;6.38;2.88;;;25.60;99.90;;;;;;5054201;28;20171;-53
2023/08/23 10:46:02;;;;;;;8.38;2.80;;;25.90;99.90;;;;;;5052864;28;20632;-53
2023/08/23 10:48:28;;;;;;;6.05;3.10;;;26.00;99.90;;;;;;5054084;28;20672;-53
2023/08/23 10:50:54;;;;;;;5.82;3.25;;;25.60;99.90;;;;;;5054122;28;20547;-50
2023/08/23 10:53:21;;;;;;;5.65;3.35;;;25.70;99.90;;;;;;5053798;28;20182;-52
2023/08/23 10:55:47;;;;;;;5.43;3.53;;;25.80;99.90;;;;;;5053909;28;20190;-53
2023/08/23 10:58:14;;;;;;;7.38;3.28;;;25.40;99.90;;;;;;5053825;28;20178;-54
2023/08/23 11:00:42;;;;;;;5.45;3.08;;;25.60;99.90;;;;;;5053636;28;20175;-53
2023/08/23 11:03:08;;;;;;;5.65;2.90;;;25.60;99.90;;;;;;5053841;28;20171;-51
2023/08/23 11:05:34;;;;;;;5.75;2.70;;;25.80;99.90;;;;;;5053825;28;20190;-52
2023/08/23 11:08:00;;;;;;;4.15;2.30;;;25.90;99.90;;;;;;5053791;28;20548;-53
2023/08/23 11:10:26;;;;;;;5.00;2.60;;;26.10;99.90;;;;;;5053697;28;20229;-53
2023/08/23 11:12:52;;;;;;;4.18;2.70;;;26.20;99.90;;;;;;5053577;28;20174;-50
2023/08/23 11:15:19;;;;;;;3.53;2.05;;;26.40;99.90;;;;;;5053589;28;20179;-53
2023/08/23 11:17:46;;;;;;;6.07;2.33;;;26.10;99.90;;;;;;5053632;28;20190;-50
2023/08/23 11:20:13;;;;;;;4.75;2.90;;;25.90;99.90;;;;;;5053449;28;20222;-54
2023/08/23 11:22:39;;;;;;;4.70;2.25;;;25.90;99.90;;;;;;5053958;28;20179;-52
2023/08/23 11:25:05;;;;;;;6.15;2.40;;;25.90;99.90;;;;;;5053495;28;20605;-50
2023/08/23 11:27:31;;;;;;;5.53;2.10;;;26.00;99.90;;;;;;5053275;28;20203;-50
2023/08/23 11:29:58;;;;;;;3.13;1.80;;;26.10;99.90;;;;;;5053269;28;20258;-53
2023/08/23 11:32:24;;;;;;;4.22;1.70;;;26.30;99.90;;;;;;5053083;28;20175;-53
2023/08/23 11:35:00;;;;;;;6.70;2.00;;;26.50;99.90;;;;;;5053473;28;20651;-53
2023/08/23 11:37:26;;;;;;;3.60;1.77;;;26.50;99.90;;;;;;5053400;28;20228;-54
2023/08/23 11:40:10;;;;;;;3.42;1.70;;;26.60;99.90;;;;;;5053185;28;20175;-53
2023/08/23 11:42:37;;;;;;;6.13;1.88;;;26.50;99.90;;;;;;5053202;28;20170;-54
2023/08/23 11:45:06;;;;;;;3.50;2.10;;;26.70;99.90;;;;;;5053276;28;20516;-53
2023/08/23 11:47:34;;;;;;;2.92;2.03;;;26.80;99.90;;;;;;5052936;28;20207;-51
2023/08/23 11:50:01;;;;;;;4.93;2.20;;;26.40;99.90;;;;;;5053328;28;20171;-52
2023/08/23 11:52:30;;;;;;;5.15;2.30;;;26.30;99.90;;;;;;5053193;28;20595;-51
2023/08/23 11:54:56;;;;;;;4.32;1.85;;;26.50;99.90;;;;;;5052958;28;20206;-52
2023/08/23 11:57:21;;;;;;;2.92;1.77;;;26.70;99.90;;;;;;5053289;28;20176;-54
2023/08/23 11:59:47;;;;;;;5.13;1.90;;;26.80;99.90;;;;;;5052984;28;20190;-52
2023/08/23 12:02:13;;;;;;;4.35;2.00;;;26.70;99.90;;;;;;5053394;28;20270;-54
2023/08/23 12:04:42;;;;;;;3.33;1.85;;;26.70;99.90;;;;;;5053087;28;20175;-54
2023/08/23 12:07:09;;;;;;;3.80;2.15;;;26.70;99.90;;;;;;5052909;28;20210;-53
2023/08/23 12:09:35;;;;;;;5.30;2.35;;;26.70;99.90;;;;;;5052736;28;20222;-54
2023/08/23 12:12:02;;;;;;;6.47;2.47;;;26.60;99.90;;;;;;5053254;28;20233;-52
2023/08/23 12:14:28;;;;;;;3.22;2.40;;;26.70;99.90;;;;;;5052945;28;20259;-51
2023/08/23 12:16:54;;;;;;;4.05;2.03;;;26.70;99.90;;;;;;5053067;28;20700;-53
2023/08/23 12:19:21;;;;;;;4.05;2.10;;;26.60;99.90;;;;;;5052871;28;20237;-53
2023/08/23 12:21:47;;;;;;;3.97;2.03;;;26.60;99.90;;;;;;5052755;28;20267;-54
2023/08/23 12:24:12;;;;;;;3.65;1.98;;;26.60;99.90;;;;;;5052699;28;20203;-53
2023/08/23 12:26:38;;;;;;;5.88;2.20;;;26.70;99.90;;;;;;5052871;28;20211;-54
2023/08/23 12:29:04;;;;;;;5.55;2.10;;;26.70;99.90;;;;;;5052977;28;20218;-52
2023/08/23 12:31:29;;;;;;;4.55;2.00;;;26.40;99.90;;;;;;5052838;28;20214;-51
2023/08/23 12:33:55;;;;;;;3.08;1.67;;;26.10;99.90;;;;;;5052658;28;20698;-52
2023/08/23 12:36:21;;;;;;;4.22;2.10;;;26.10;99.90;;;;;;5052677;28;20171;-50
2023/08/23 12:38:47;;;;;;;3.47;2.00;;;26.00;99.90;;;;;;5052524;28;20183;-53
2023/08/23 12:41:13;;;;;;;5.00;2.10;;;25.90;99.90;;;;;;5052773;28;20520;-54